Layer de la Haye, United Kingdom
Current Conditions -  °F | °C
As of 5:50 PM on Tuesday 21 Oct 2014 (Local Time) from EGUW Reporting Station
Clear Clear  
Wind Chill: 38°   Ceiling: Unl
Heat Index: 46°   Visibility: 6mi
Dew Point: 36°   Wind: 23mph
Humidity: 66%   Direction: 290°WNW
Pressure: 29.77"   Gusts: NA
Location:  51.85°N, 0.86°E
Report Text: EGUW 211650Z 29020KT CAVOK 08/02 Q1008 BLU NOSIG
Loading
Personal Weather Stations






























Interactive Weather Map New forecast layout! Learn more

10-Day Weather Forecast

Advertisements
Track Severe Weather on mobile